createdAt,value
2018-03-02T00:02:25.307Z,62.90
2018-03-02T00:04:52.852Z,63.40
2018-03-02T00:07:20.290Z,63.80
2018-03-02T00:09:47.730Z,64.30
2018-03-02T00:12:15.180Z,64.30
2018-03-02T00:14:42.608Z,64.80
2018-03-02T00:17:10.053Z,64.50
2018-03-02T00:19:37.497Z,64.90
2018-03-02T00:22:04.941Z,65.40
2018-03-02T00:24:32.389Z,65.50
2018-03-02T00:26:59.831Z,65.50
2018-03-02T00:29:27.264Z,65.70
2018-03-02T00:31:54.706Z,65.90
2018-03-02T00:34:22.144Z,66.60
2018-03-02T00:36:49.596Z,67.20
2018-03-02T00:39:17.160Z,67.30
2018-03-02T00:41:44.612Z,67.40
2018-03-02T00:44:12.044Z,67.80
2018-03-02T00:46:39.500Z,67.50
2018-03-02T00:49:06.924Z,67.50
2018-03-02T00:51:34.357Z,67.60
2018-03-02T00:54:01.789Z,67.80
2018-03-02T00:56:29.235Z,68.20
2018-03-02T00:58:56.675Z,68.60
2018-03-02T01:01:24.120Z,68.50
2018-03-02T01:03:51.559Z,68.00
2018-03-02T01:06:18.995Z,67.90
2018-03-02T01:08:46.455Z,67.50
2018-03-02T01:11:13.885Z,67.10
2018-03-02T01:13:41.309Z,66.50
2018-03-02T01:16:08.763Z,66.50
2018-03-02T01:18:36.196Z,66.80
2018-03-02T01:21:03.656Z,65.70
2018-03-02T01:23:31.088Z,65.40
2018-03-02T01:25:58.525Z,65.50
2018-03-02T01:28:25.960Z,65.30
2018-03-02T01:30:53.407Z,64.70
2018-03-02T01:33:20.860Z,64.70
2018-03-02T01:35:48.288Z,64.80
2018-03-02T01:38:15.728Z,65.00
2018-03-02T01:40:43.169Z,64.50
2018-03-02T01:43:10.628Z,64.30
2018-03-02T01:45:38.067Z,64.30
2018-03-02T01:48:05.517Z,64.10
2018-03-02T01:50:32.938Z,64.80
2018-03-02T01:53:00.368Z,64.60
2018-03-02T01:55:27.812Z,64.80
2018-03-02T01:57:55.267Z,64.30
2018-03-02T02:00:22.720Z,64.70
2018-03-02T02:02:50.136Z,64.70
2018-03-02T02:05:17.567Z,64.90
2018-03-02T02:07:45.007Z,64.70
2018-03-02T02:10:12.460Z,64.80
2018-03-02T02:12:39.887Z,64.20
2018-03-02T02:15:07.327Z,64.20
2018-03-02T02:17:35.528Z,64.40
2018-03-02T02:20:02.960Z,64.40
2018-03-02T02:22:30.421Z,64.40
2018-03-02T02:24:57.847Z,65.10
2018-03-02T02:27:25.287Z,65.10
2018-03-02T02:29:52.707Z,65.70
2018-03-02T02:32:20.157Z,65.70
2018-03-02T02:34:47.572Z,64.70
2018-03-02T02:37:15.022Z,64.70
2018-03-02T02:39:42.468Z,64.60
2018-03-02T02:42:09.908Z,64.40
2018-03-02T02:44:37.361Z,64.90
2018-03-02T02:47:04.776Z,64.80
2018-03-02T02:49:32.214Z,65.40
2018-03-02T02:52:00.414Z,64.60
2018-03-02T02:54:27.855Z,64.50
2018-03-02T02:59:28.220Z,64.70
2018-03-02T03:01:55.634Z,65.20
2018-03-02T03:04:23.060Z,65.10
2018-03-02T03:06:50.490Z,65.00
2018-03-02T03:09:17.942Z,64.70
2018-03-02T03:11:45.379Z,64.90
2018-03-02T03:14:12.832Z,65.10
2018-03-02T03:16:40.301Z,65.00
2018-03-02T03:19:07.721Z,65.10
2018-03-02T03:21:35.144Z,64.00
2018-03-02T03:24:02.584Z,64.70
2018-03-02T03:26:30.012Z,64.50
2018-03-02T03:28:57.443Z,64.10
2018-03-02T03:31:24.865Z,64.10
2018-03-02T03:33:53.084Z,64.30
2018-03-02T03:36:20.543Z,64.10
2018-03-02T03:38:47.976Z,63.80
2018-03-02T03:41:15.435Z,63.60
2018-03-02T03:43:42.860Z,64.40
2018-03-02T03:46:10.309Z,63.90
2018-03-02T03:48:37.728Z,64.10
2018-03-02T03:51:05.180Z,64.30
2018-03-02T03:53:32.635Z,63.90
2018-03-02T03:56:00.069Z,64.10
2018-03-02T03:58:27.506Z,65.00
2018-03-02T04:00:54.949Z,64.10
2018-03-02T04:03:22.388Z,64.80
2018-03-02T04:05:49.848Z,65.10
2018-03-02T04:08:17.300Z,64.40
2018-03-02T04:10:44.720Z,64.80
2018-03-02T04:13:12.143Z,65.70
2018-03-02T04:15:39.586Z,65.90
2018-03-02T04:18:07.052Z,65.20
2018-03-02T04:20:35.273Z,65.10
2018-03-02T04:23:02.704Z,65.10
2018-03-02T04:25:30.164Z,64.60
2018-03-02T04:27:57.580Z,65.20
2018-03-02T04:30:25.017Z,65.40
2018-03-02T04:32:52.474Z,65.30
2018-03-02T04:35:19.888Z,65.80
2018-03-02T04:37:47.328Z,64.90
2018-03-02T04:40:14.782Z,64.60
2018-03-02T04:42:42.978Z,65.80
2018-03-02T04:45:10.419Z,65.80
2018-03-02T04:47:37.873Z,65.50
2018-03-02T04:50:05.300Z,66.30
2018-03-02T04:52:32.747Z,66.00
2018-03-02T04:55:00.181Z,65.20
2018-03-02T04:57:27.625Z,66.30
2018-03-02T04:59:55.064Z,66.20
2018-03-02T05:02:22.524Z,66.60
2018-03-02T05:04:50.728Z,67.50
2018-03-02T05:07:18.188Z,67.50
2018-03-02T05:09:45.637Z,66.80
2018-03-02T05:12:13.102Z,66.90
2018-03-02T05:14:40.516Z,66.90
2018-03-02T05:17:07.949Z,66.20
2018-03-02T05:19:35.391Z,66.00
2018-03-02T05:22:02.852Z,66.70
2018-03-02T05:24:30.296Z,67.50
2018-03-02T05:26:57.766Z,66.50
2018-03-02T05:29:25.195Z,65.80
2018-03-02T05:31:52.630Z,66.10
2018-03-02T05:34:20.048Z,66.40
2018-03-02T05:36:47.515Z,65.90
2018-03-02T05:39:14.962Z,65.70
2018-03-02T05:41:42.420Z,66.00
2018-03-02T05:44:09.872Z,66.80
2018-03-02T05:46:37.297Z,66.50
2018-03-02T05:49:04.745Z,66.70
2018-03-02T05:51:32.192Z,66.80
2018-03-02T05:53:59.620Z,80.60
2018-03-02T05:56:27.060Z,70.40
2018-03-02T05:58:54.496Z,67.10
2018-03-02T06:01:21.956Z,68.20
2018-03-02T06:03:49.420Z,65.10
2018-03-02T06:06:17.636Z,64.50
2018-03-02T06:08:45.057Z,64.50
2018-03-02T06:11:12.496Z,66.50
2018-03-02T06:13:39.946Z,65.20
2018-03-02T06:16:07.371Z,65.80
2018-03-02T06:18:34.800Z,65.30
2018-03-02T06:21:02.255Z,66.40
2018-03-02T06:23:29.700Z,66.10
2018-03-02T06:25:57.134Z,64.50
2018-03-02T06:28:24.586Z,63.90
2018-03-02T06:30:51.996Z,64.60
2018-03-02T06:33:20.201Z,65.30
2018-03-02T06:35:47.624Z,66.10
2018-03-02T06:38:15.065Z,66.50
2018-03-02T06:40:42.484Z,66.50
2018-03-02T06:43:09.932Z,66.60
2018-03-02T06:45:37.383Z,66.90
2018-03-02T06:48:04.829Z,66.60
2018-03-02T06:50:32.271Z,66.00
2018-03-02T06:52:59.712Z,66.10
2018-03-02T06:55:27.187Z,65.70
2018-03-02T06:57:54.632Z,65.50
2018-03-02T07:00:22.059Z,66.30
2018-03-02T07:02:49.492Z,66.20
2018-03-02T07:05:16.925Z,65.40
2018-03-02T07:07:44.352Z,65.20
2018-03-02T07:10:11.799Z,65.40
2018-03-02T07:12:39.240Z,65.70
2018-03-02T07:15:06.672Z,66.10
2018-03-02T07:17:34.111Z,65.90
2018-03-02T07:20:01.570Z,66.30
2018-03-02T07:22:29.008Z,65.30
2018-03-02T07:24:56.436Z,65.00
2018-03-02T07:27:23.871Z,64.40
2018-03-02T07:29:51.321Z,64.30
2018-03-02T07:32:18.745Z,64.80
2018-03-02T07:34:46.948Z,64.10
2018-03-02T07:37:14.388Z,64.10
2018-03-02T07:39:41.836Z,65.30
2018-03-02T07:42:09.264Z,64.10
2018-03-02T07:44:36.716Z,64.00
2018-03-02T07:47:04.128Z,63.40
2018-03-02T07:49:31.578Z,63.80
2018-03-02T07:51:59.005Z,62.70
2018-03-02T07:54:26.443Z,62.50
2018-03-02T07:56:54.631Z,62.70
2018-03-02T07:59:22.072Z,62.70
2018-03-02T08:01:49.500Z,62.70
2018-03-02T08:04:16.995Z,61.80
2018-03-02T08:06:44.407Z,62.20
2018-03-02T08:09:11.830Z,62.70
2018-03-02T08:11:39.282Z,61.70
2018-03-02T08:14:06.710Z,63.10
2018-03-02T08:16:34.160Z,62.30
2018-03-02T08:19:01.576Z,61.20
2018-03-02T08:21:29.776Z,60.50
2018-03-02T08:23:57.211Z,60.40
2018-03-02T08:26:24.656Z,60.50
2018-03-02T08:28:52.086Z,60.20
2018-03-02T08:31:19.664Z,60.50
2018-03-02T08:33:47.115Z,60.00
2018-03-02T08:36:15.309Z,59.00
2018-03-02T08:38:42.756Z,59.00
2018-03-02T08:41:10.215Z,58.80
2018-03-02T08:43:37.640Z,58.90
2018-03-02T08:46:05.076Z,58.20
2018-03-02T08:48:32.584Z,58.60
2018-03-02T08:51:00.021Z,58.50
2018-03-02T08:53:27.466Z,58.10
2018-03-02T08:55:54.897Z,58.60
2018-03-02T08:58:22.321Z,57.40
2018-03-02T09:00:49.776Z,57.70
2018-03-02T09:03:17.236Z,57.90
2018-03-02T09:05:44.676Z,57.70
2018-03-02T09:08:12.125Z,58.00
2018-03-02T09:10:39.574Z,57.60
2018-03-02T09:13:07.000Z,56.90
2018-03-02T09:15:34.420Z,57.60
2018-03-02T09:18:01.890Z,56.90
2018-03-02T09:20:29.311Z,55.90
2018-03-02T09:22:56.741Z,56.50
2018-03-02T09:25:24.189Z,58.20
2018-03-02T09:27:51.617Z,56.00
2018-03-02T09:30:19.065Z,56.80
2018-03-02T09:32:46.484Z,55.40
2018-03-02T09:35:13.927Z,56.50
2018-03-02T09:37:41.392Z,54.30
2018-03-02T09:40:08.832Z,54.40
2018-03-02T09:42:36.275Z,53.40
2018-03-02T09:45:03.700Z,54.00
2018-03-02T09:47:31.130Z,54.10
2018-03-02T09:49:58.560Z,53.60
2018-03-02T09:52:26.024Z,53.40
2018-03-02T09:54:53.473Z,53.60
2018-03-02T09:57:20.907Z,52.40
2018-03-02T09:59:48.352Z,51.90
2018-03-02T10:02:15.840Z,52.20
2018-03-02T10:04:43.264Z,51.40
2018-03-02T10:07:10.682Z,51.10
2018-03-02T10:09:38.104Z,50.40
2018-03-02T10:12:05.673Z,50.40
2018-03-02T10:14:33.097Z,51.30
2018-03-02T10:17:00.576Z,52.20
2018-03-02T10:19:28.041Z,51.30
2018-03-02T10:21:55.477Z,51.20
2018-03-02T10:24:22.912Z,50.50
2018-03-02T10:26:50.345Z,49.70
2018-03-02T10:29:17.777Z,48.50
2018-03-02T10:31:45.324Z,48.10
2018-03-02T10:34:12.756Z,47.80
2018-03-02T10:36:40.177Z,47.90
2018-03-02T10:39:07.608Z,49.00
2018-03-02T10:41:35.038Z,51.90
2018-03-02T10:44:02.477Z,53.40
2018-03-02T10:46:29.896Z,52.90
2018-03-02T10:48:58.110Z,50.70
2018-03-02T10:51:25.556Z,50.70
2018-03-02T10:53:52.975Z,51.80
2018-03-02T10:56:20.424Z,51.70
2018-03-02T10:58:47.856Z,50.40
2018-03-02T11:01:21.032Z,50.00
2018-03-02T11:03:48.468Z,48.70
2018-03-02T11:06:15.898Z,48.90
2018-03-02T11:08:44.095Z,49.60
2018-03-02T11:11:11.536Z,49.50
2018-03-02T11:13:38.976Z,48.20
2018-03-02T11:16:06.398Z,49.00
2018-03-02T11:18:33.835Z,49.00
2018-03-02T11:21:01.246Z,47.90
2018-03-02T11:23:29.463Z,47.40
2018-03-02T11:25:56.877Z,47.30
2018-03-02T11:28:24.307Z,48.50
2018-03-02T11:30:51.734Z,48.20
2018-03-02T11:33:19.945Z,47.60
2018-03-02T11:35:47.386Z,47.50
2018-03-02T11:38:14.811Z,45.30
2018-03-02T11:40:42.260Z,48.00
2018-03-02T11:43:09.690Z,48.50
2018-03-02T11:45:37.119Z,48.10
2018-03-02T11:48:05.310Z,44.50
2018-03-02T11:50:32.736Z,44.40
2018-03-02T11:53:00.176Z,43.20
2018-03-02T11:55:27.623Z,44.50
2018-03-02T11:57:55.049Z,45.30
2018-03-02T12:00:22.479Z,44.20
2018-03-02T12:02:50.677Z,43.10
2018-03-02T12:05:18.116Z,43.10
2018-03-02T12:07:45.545Z,42.00
2018-03-02T12:10:12.969Z,42.00
2018-03-02T12:12:40.413Z,41.10
2018-03-02T12:15:07.829Z,41.90
2018-03-02T12:17:36.034Z,41.70
2018-03-02T12:20:03.476Z,41.70
2018-03-02T12:22:30.947Z,41.80
2018-03-02T12:24:58.339Z,42.10
2018-03-02T12:27:25.780Z,42.90
2018-03-02T12:29:53.200Z,42.30
2018-03-02T12:32:21.396Z,42.50
2018-03-02T12:34:48.809Z,42.50
2018-03-02T12:37:17.000Z,46.30
2018-03-02T12:39:44.436Z,46.30
2018-03-02T12:42:11.851Z,47.40
2018-03-02T12:44:40.043Z,45.10
2018-03-02T12:47:07.472Z,45.10
2018-03-02T12:49:34.945Z,45.00
2018-03-02T12:52:02.376Z,44.80
2018-03-02T12:54:29.909Z,44.50
2018-03-02T12:56:57.264Z,45.90
2018-03-02T12:59:24.708Z,46.00
2018-03-02T13:01:52.137Z,45.70
2018-03-02T13:04:19.559Z,45.50
2018-03-02T13:06:46.979Z,46.00
2018-03-02T13:09:15.187Z,46.50
2018-03-02T13:11:42.595Z,46.50
2018-03-02T13:14:10.024Z,47.70
2018-03-02T13:16:38.232Z,47.90
2018-03-02T13:19:05.652Z,47.90
2018-03-02T13:21:33.088Z,48.40
2018-03-02T13:24:00.545Z,48.70
2018-03-02T13:26:40.659Z,49.10
2018-03-02T13:29:08.079Z,49.00
2018-03-02T13:31:36.301Z,48.40
2018-03-02T13:34:15.697Z,48.30
2018-03-02T13:36:43.128Z,49.20
2018-03-02T13:39:10.555Z,50.00
2018-03-02T13:41:49.848Z,49.90
2018-03-02T13:44:17.276Z,49.30
2018-03-02T13:46:44.740Z,49.60
2018-03-02T13:49:24.899Z,49.30
2018-03-02T13:51:52.328Z,49.60
2018-03-02T13:54:20.529Z,50.20
2018-03-02T13:57:00.054Z,50.20
2018-03-02T13:59:27.476Z,49.50
2018-03-02T14:01:54.909Z,49.90
2018-03-02T14:04:34.368Z,49.50
2018-03-02T14:07:01.794Z,48.90
2018-03-02T14:09:29.228Z,48.70
2018-03-02T14:11:56.644Z,48.60
2018-03-02T14:14:24.085Z,48.60
2018-03-02T14:16:52.277Z,47.90
2018-03-02T14:19:19.710Z,47.90
2018-03-02T14:21:47.133Z,48.00
2018-03-02T14:24:16.324Z,47.50
2018-03-02T14:26:43.780Z,47.50
2018-03-02T14:29:11.207Z,48.60
2018-03-02T14:31:38.629Z,48.80
2018-03-02T14:34:06.827Z,49.80
2018-03-02T14:36:34.250Z,49.80
2018-03-02T14:39:01.690Z,50.20
2018-03-02T14:41:29.125Z,49.70
2018-03-02T14:43:56.564Z,49.50
2018-03-02T14:46:24.765Z,49.10
2018-03-02T14:48:52.192Z,49.10
2018-03-02T14:51:19.628Z,49.40
2018-03-02T14:53:47.052Z,49.40
2018-03-02T14:56:14.484Z,48.90
2018-03-02T14:58:42.676Z,50.50
2018-03-02T15:01:10.096Z,50.40
2018-03-02T15:03:37.540Z,51.40
2018-03-02T15:06:04.956Z,51.40
2018-03-02T15:08:33.165Z,51.70
2018-03-02T15:11:00.604Z,51.60
2018-03-02T15:13:28.048Z,51.80
2018-03-02T15:15:55.480Z,51.10
2018-03-02T15:18:22.908Z,51.20
2018-03-02T15:20:50.345Z,51.10
2018-03-02T15:23:18.556Z,51.20
2018-03-02T15:25:45.960Z,51.10
2018-03-02T15:28:13.386Z,51.40
2018-03-02T15:30:40.830Z,51.70
2018-03-02T15:33:08.244Z,51.20
2018-03-02T15:35:36.457Z,51.30
2018-03-02T15:38:03.872Z,51.30
2018-03-02T15:40:31.304Z,51.40
2018-03-02T15:42:58.735Z,51.40
2018-03-02T15:45:26.173Z,51.30
2018-03-02T15:47:54.356Z,51.70
2018-03-02T15:50:21.869Z,51.70
2018-03-02T15:52:49.227Z,52.10
2018-03-02T15:55:16.672Z,52.10
2018-03-02T15:57:44.112Z,53.00
2018-03-02T16:00:12.297Z,52.50
2018-03-02T16:02:39.716Z,52.40
2018-03-02T16:05:07.174Z,52.10
2018-03-02T16:07:34.603Z,52.60
2018-03-02T16:10:02.035Z,52.40
2018-03-02T16:12:30.224Z,52.80
2018-03-02T16:14:57.665Z,52.70
2018-03-02T16:17:25.100Z,53.40
2018-03-02T16:19:52.555Z,53.20
2018-03-02T16:22:20.022Z,53.40
2018-03-02T16:24:47.440Z,53.60
2018-03-02T16:27:14.881Z,53.80
2018-03-02T16:29:42.306Z,54.30
2018-03-02T16:32:09.800Z,54.30
2018-03-02T16:34:38.004Z,53.30
2018-03-02T16:37:05.425Z,53.30
2018-03-02T16:39:33.616Z,54.40
2018-03-02T16:42:01.040Z,54.30
2018-03-02T16:44:28.476Z,54.50
2018-03-02T16:46:55.908Z,54.30
2018-03-02T16:49:24.112Z,54.50
2018-03-02T16:51:51.533Z,54.60
2018-03-02T16:54:18.955Z,54.60
2018-03-02T16:56:47.155Z,55.40
2018-03-02T16:59:14.579Z,55.30
2018-03-02T17:01:42.008Z,55.30
2018-03-02T17:04:09.431Z,55.20
2018-03-02T17:06:37.636Z,56.40
2018-03-02T17:09:05.051Z,56.40
2018-03-02T17:11:32.496Z,56.60
2018-03-02T17:13:59.929Z,56.50
2018-03-02T17:16:27.356Z,56.40
2018-03-02T17:18:55.564Z,58.10
2018-03-02T17:21:23.004Z,58.00
2018-03-02T17:23:50.431Z,61.70
2018-03-02T17:26:17.873Z,62.80
2018-03-02T17:28:45.300Z,63.20
2018-03-02T17:31:12.753Z,67.80
2018-03-02T17:33:40.180Z,71.90
2018-03-02T17:36:07.613Z,70.70
2018-03-02T17:38:35.054Z,71.30
2018-03-02T17:41:02.504Z,74.30
2018-03-02T17:43:29.936Z,75.60
2018-03-02T17:45:57.372Z,74.90
2018-03-02T17:48:25.561Z,73.60
2018-03-02T17:50:53.016Z,73.60
2018-03-02T17:53:20.456Z,74.50
2018-03-02T17:55:47.917Z,75.60
2018-03-02T17:58:15.352Z,76.50
2018-03-02T18:00:42.828Z,76.50
2018-03-02T18:03:11.044Z,76.90
2018-03-02T18:05:38.500Z,76.80
2018-03-02T18:08:05.952Z,77.90
2018-03-02T18:10:33.380Z,76.90
2018-03-02T18:13:00.816Z,77.60
2018-03-02T18:15:28.265Z,77.40
2018-03-02T18:17:55.700Z,77.00
2018-03-02T18:20:23.124Z,76.10
2018-03-02T18:22:50.558Z,75.80
2018-03-02T18:25:17.984Z,74.80
2018-03-02T18:27:45.420Z,74.00
2018-03-02T18:30:13.625Z,73.90
2018-03-02T18:32:41.044Z,73.90
2018-03-02T18:35:08.481Z,74.50
2018-03-02T18:37:35.940Z,74.20
2018-03-02T18:40:03.359Z,74.50
2018-03-02T18:42:30.842Z,74.10
2018-03-02T18:44:58.261Z,73.10
2018-03-02T18:47:25.688Z,72.50
2018-03-02T18:49:53.113Z,72.50
2018-03-02T18:52:20.557Z,72.50
2018-03-02T18:54:48.756Z,73.50
2018-03-02T18:57:16.196Z,73.40
2018-03-02T18:59:43.639Z,73.40
2018-03-02T19:02:11.336Z,73.40
2018-03-02T19:04:39.537Z,72.60
2018-03-02T19:07:06.978Z,72.70
2018-03-02T19:09:34.399Z,73.50
2018-03-02T19:12:01.849Z,73.60
2018-03-02T19:14:29.301Z,74.60
2018-03-02T19:16:56.731Z,75.20
2018-03-02T19:19:24.151Z,75.50
2018-03-02T19:21:51.579Z,76.50
2018-03-02T19:24:19.788Z,78.20
2018-03-02T19:26:47.222Z,78.80
2018-03-02T19:29:14.656Z,78.90
2018-03-02T19:31:42.078Z,79.30
2018-03-02T19:34:09.549Z,79.50
2018-03-02T19:36:37.005Z,79.40
2018-03-02T19:39:04.449Z,79.80
2018-03-02T19:41:31.907Z,79.80
2018-03-02T19:43:59.448Z,79.80
2018-03-02T19:46:26.888Z,80.30
2018-03-02T19:48:54.327Z,80.60
2018-03-02T19:51:21.780Z,81.50
2018-03-02T19:53:49.205Z,81.60
2018-03-02T19:56:16.649Z,82.90
2018-03-02T19:58:44.196Z,84.30
2018-03-02T20:01:11.606Z,86.10
2018-03-02T20:03:39.057Z,86.90
2018-03-02T20:06:06.468Z,87.50
2018-03-02T20:08:33.903Z,88.40
2018-03-02T20:11:01.338Z,89.50
2018-03-02T20:13:29.553Z,90.60
2018-03-02T20:15:56.999Z,90.60
2018-03-02T20:18:24.432Z,90.80
2018-03-02T20:20:51.871Z,91.20
2018-03-02T20:23:19.319Z,91.80
2018-03-02T20:25:46.738Z,92.20
2018-03-02T20:28:14.169Z,92.20
2018-03-02T20:30:41.614Z,92.60
2018-03-02T20:33:09.053Z,92.30
2018-03-02T20:35:36.480Z,93.10
2018-03-02T20:38:03.905Z,92.90
2018-03-02T20:40:32.121Z,93.40
2018-03-02T20:42:59.548Z,93.40
2018-03-02T20:45:27.022Z,94.20
2018-03-02T20:47:54.578Z,94.10
2018-03-02T20:50:21.992Z,93.80
2018-03-02T20:52:49.440Z,93.60
2018-03-02T20:55:16.889Z,93.20
2018-03-02T20:57:44.324Z,92.70
2018-03-02T21:00:11.757Z,92.80
2018-03-02T21:02:39.217Z,93.20
2018-03-02T21:05:06.636Z,93.10
2018-03-02T21:07:34.081Z,93.30
2018-03-02T21:10:01.533Z,92.90
2018-03-02T21:12:28.995Z,92.90
2018-03-02T21:14:56.420Z,92.90
2018-03-02T21:17:23.869Z,93.20
2018-03-02T21:19:51.291Z,93.10
2018-03-02T21:22:18.716Z,93.60
2018-03-02T21:24:46.173Z,94.00
2018-03-02T21:27:13.683Z,94.30
2018-03-02T21:29:41.049Z,95.00
2018-03-02T21:32:08.509Z,95.40
2018-03-02T21:34:36.001Z,95.90
2018-03-02T21:37:03.379Z,95.90
2018-03-02T21:39:30.804Z,96.30
2018-03-02T21:41:58.249Z,96.10
2018-03-02T21:44:25.688Z,95.70
2018-03-02T21:46:53.114Z,95.80
2018-03-02T21:49:20.546Z,96.20
2018-03-02T21:51:48.748Z,95.70
2018-03-02T21:54:16.177Z,95.70
2018-03-02T21:56:43.620Z,95.80
2018-03-02T21:59:11.063Z,96.30
2018-03-02T22:01:38.494Z,96.10
2018-03-02T22:04:05.983Z,96.20
2018-03-02T22:06:33.389Z,96.70
2018-03-02T22:09:00.865Z,96.30
2018-03-02T22:11:28.299Z,96.50
2018-03-02T22:13:55.727Z,96.80
2018-03-02T22:16:23.163Z,97.20
2018-03-02T22:18:50.605Z,96.80
2018-03-02T22:21:18.044Z,97.10
2018-03-02T22:23:45.480Z,96.90
2018-03-02T22:26:12.949Z,96.50
2018-03-02T22:28:40.362Z,96.40
2018-03-02T22:31:07.799Z,96.30
2018-03-02T22:33:35.258Z,96.90
2018-03-02T22:36:02.700Z,97.10
2018-03-02T22:38:30.135Z,96.80
2018-03-02T22:40:57.568Z,96.80
2018-03-02T22:43:24.999Z,97.20
2018-03-02T22:45:52.480Z,96.90
2018-03-02T22:48:19.924Z,96.70
2018-03-02T22:50:47.359Z,96.80
2018-03-02T22:53:14.808Z,97.40
2018-03-02T22:55:42.248Z,97.10
2018-03-02T22:58:09.704Z,97.30
2018-03-02T23:00:37.904Z,97.90
2018-03-02T23:03:05.339Z,97.90
2018-03-02T23:05:32.788Z,97.70
2018-03-02T23:08:00.234Z,97.90
2018-03-02T23:10:27.663Z,97.60
2018-03-02T23:12:55.116Z,97.90
2018-03-02T23:15:22.564Z,97.20
2018-03-02T23:17:49.996Z,97.20
2018-03-02T23:20:17.427Z,97.60
2018-03-02T23:22:44.876Z,97.40
2018-03-02T23:25:12.316Z,97.40
2018-03-02T23:27:39.764Z,97.40
2018-03-02T23:30:07.197Z,97.50
2018-03-02T23:32:34.640Z,97.40
2018-03-02T23:35:02.087Z,97.70
2018-03-02T23:37:29.509Z,97.50
2018-03-02T23:39:57.715Z,97.20
2018-03-02T23:42:25.156Z,97.20
2018-03-02T23:44:52.584Z,96.90
2018-03-02T23:47:20.020Z,97.10
2018-03-02T23:49:47.469Z,96.70
2018-03-02T23:52:14.918Z,97.20
2018-03-02T23:54:42.357Z,96.90
2018-03-02T23:57:09.812Z,97.00
2018-03-02T23:59:37.247Z,97.10
